createdAt,value
2023-02-24T00:02:47.783Z,75.82
2023-02-24T00:07:40.136Z,76.04
2023-02-24T00:12:30.603Z,76.08
2023-02-24T00:17:32.540Z,76.22
2023-02-24T00:22:23.097Z,76.09
2023-02-24T00:27:15.676Z,75.95
2023-02-24T00:32:13.516Z,75.17
2023-02-24T00:37:09.761Z,75.05
2023-02-24T00:42:05.185Z,75.66
2023-02-24T00:46:59.458Z,75.52
2023-02-24T00:51:56.966Z,75.20
2023-02-24T00:56:55.585Z,75.40
2023-02-24T01:01:50.775Z,76.01
2023-02-24T01:12:10.137Z,76.32
2023-02-24T01:17:00.335Z,76.59
2023-02-24T01:21:56.387Z,76.95
2023-02-24T01:26:50.938Z,76.62
2023-02-24T01:31:49.964Z,76.44
2023-02-24T01:36:43.723Z,76.30
2023-02-24T01:41:38.140Z,76.47
2023-02-24T01:46:33.527Z,76.51
2023-02-24T01:51:33.493Z,76.20
2023-02-24T01:56:23.471Z,76.63
2023-02-24T02:01:26.043Z,76.64
2023-02-24T02:06:31.509Z,76.75
2023-02-24T02:11:33.188Z,77.11
2023-02-24T02:16:43.677Z,77.14
2023-02-24T02:21:57.136Z,76.83
2023-02-24T02:32:54.507Z,77.19
2023-02-24T02:38:06.409Z,78.07
2023-02-24T02:43:03.288Z,77.48
2023-02-24T02:47:59.415Z,77.20
2023-02-24T02:52:59.992Z,77.36
2023-02-24T02:57:59.997Z,76.69
2023-02-24T03:03:03.374Z,76.05
2023-02-24T03:08:02.987Z,76.14
2023-02-24T03:13:00.772Z,75.96
2023-02-24T03:18:06.576Z,75.40
2023-02-24T03:23:09.672Z,75.60
2023-02-24T03:28:09.257Z,75.51
2023-02-24T03:33:04.944Z,75.08
2023-02-24T03:37:59.555Z,74.65
2023-02-24T03:42:57.874Z,74.35
2023-02-24T03:47:59.788Z,74.02
2023-02-24T03:52:59.185Z,73.40
2023-02-24T03:58:04.747Z,73.67
2023-02-24T04:03:08.047Z,74.04
2023-02-24T04:08:04.235Z,73.33
2023-02-24T04:13:02.918Z,73.08
2023-02-24T04:17:57.802Z,72.68
2023-02-24T04:23:07.219Z,72.07
2023-02-24T04:28:14.372Z,71.96
2023-02-24T04:33:10.280Z,71.66
2023-02-24T04:38:00.922Z,71.80
2023-02-24T04:42:58.489Z,71.78
2023-02-24T04:48:06.096Z,71.72
2023-02-24T04:52:57.510Z,71.95
2023-02-24T04:57:51.002Z,72.13
2023-02-24T05:02:48.410Z,72.18
2023-02-24T05:07:47.802Z,71.41
2023-02-24T05:12:41.266Z,71.46
2023-02-24T05:17:31.885Z,71.67
2023-02-24T05:22:30.450Z,71.66
2023-02-24T05:27:28.628Z,70.99
2023-02-24T05:32:24.017Z,71.92
2023-02-24T05:37:18.348Z,72.33
2023-02-24T05:42:11.901Z,72.02
2023-02-24T05:47:07.608Z,71.84
2023-02-24T05:52:01.942Z,72.30
2023-02-24T05:56:57.081Z,71.53
2023-02-24T06:01:47.082Z,71.80
2023-02-24T06:07:00.918Z,70.94
2023-02-24T06:11:55.938Z,71.03
2023-02-24T06:16:47.713Z,71.10
2023-02-24T06:21:55.450Z,70.85
2023-02-24T06:26:50.753Z,70.86
2023-02-24T06:31:47.127Z,71.20
2023-02-24T06:36:38.289Z,71.13
2023-02-24T06:41:43.637Z,71.06
2023-02-24T06:46:36.124Z,71.13
2023-02-24T06:51:30.705Z,70.73
2023-02-24T06:56:23.352Z,71.62
2023-02-24T07:01:27.078Z,73.17
2023-02-24T07:06:24.287Z,71.25
2023-02-24T07:11:25.179Z,72.14
2023-02-24T07:16:20.725Z,71.48
2023-02-24T07:21:21.439Z,75.55
2023-02-24T07:26:14.143Z,75.36
2023-02-24T07:31:11.457Z,73.43
2023-02-24T07:36:11.483Z,72.40
2023-02-24T07:41:02.014Z,71.39
2023-02-24T07:45:53.320Z,72.27
2023-02-24T07:50:49.985Z,71.65
2023-02-24T07:55:44.688Z,72.30
2023-02-24T08:00:50.740Z,73.35
2023-02-24T08:05:46.026Z,73.53
2023-02-24T08:10:37.624Z,74.06
2023-02-24T08:16:26.653Z,73.76
2023-02-24T08:21:05.506Z,74.21
2023-02-24T08:26:00.254Z,73.94
2023-02-24T08:30:53.858Z,74.08
2023-02-24T08:35:48.961Z,74.06
2023-02-24T08:40:54.178Z,74.31
2023-02-24T08:45:51.268Z,73.72
2023-02-24T08:50:45.742Z,72.98
2023-02-24T08:55:40.135Z,72.78
2023-02-24T09:00:49.359Z,72.52
2023-02-24T09:05:51.780Z,73.41
2023-02-24T09:10:47.691Z,73.84
2023-02-24T09:15:44.386Z,73.23
2023-02-24T09:20:46.861Z,73.25
2023-02-24T09:25:50.091Z,72.58
2023-02-24T09:31:00.516Z,72.99
2023-02-24T09:35:52.075Z,73.09
2023-02-24T09:40:49.046Z,72.53
2023-02-24T09:45:49.284Z,73.66
2023-02-24T09:51:05.318Z,74.21
2023-02-24T09:56:09.630Z,74.86
2023-02-24T10:01:23.934Z,75.26
2023-02-24T10:06:27.505Z,75.08
2023-02-24T10:11:33.393Z,74.97
2023-02-24T10:16:28.483Z,75.68
2023-02-24T10:21:31.056Z,75.85
2023-02-24T10:26:35.769Z,76.04
2023-02-24T10:31:35.968Z,75.57
2023-02-24T10:36:35.730Z,76.47
2023-02-24T10:41:29.518Z,77.64
2023-02-24T10:46:39.998Z,81.06
2023-02-24T10:51:40.486Z,83.47
2023-02-24T10:56:45.100Z,84.76
2023-02-24T11:01:54.901Z,86.64
2023-02-24T11:06:58.384Z,86.89
2023-02-24T11:12:07.389Z,86.24
2023-02-24T11:17:11.774Z,89.52
2023-02-24T11:22:09.208Z,88.87
2023-02-24T11:27:04.436Z,90.41
2023-02-24T11:32:05.854Z,91.99
2023-02-24T11:37:01.013Z,92.93
2023-02-24T11:41:55.723Z,91.17
2023-02-24T11:46:59.053Z,93.81
2023-02-24T11:51:51.071Z,94.93
2023-02-24T11:56:44.420Z,94.56
2023-02-24T12:01:40.797Z,94.93
2023-02-24T12:06:35.411Z,92.26
2023-02-24T12:11:33.877Z,92.74
2023-02-24T12:16:26.850Z,93.34
2023-02-24T12:21:22.030Z,93.66
2023-02-24T12:26:19.041Z,94.84
2023-02-24T12:31:20.063Z,94.08
2023-02-24T12:36:15.094Z,94.14
2023-02-24T12:41:17.450Z,94.47
2023-02-24T12:46:14.014Z,93.34
2023-02-24T12:51:07.008Z,92.27
2023-02-24T12:56:04.141Z,92.78
2023-02-24T13:01:04.509Z,91.72
2023-02-24T13:05:59.974Z,90.20
2023-02-24T13:10:53.466Z,90.31
2023-02-24T13:15:54.063Z,90.11
2023-02-24T13:20:47.551Z,88.68
2023-02-24T13:31:05.905Z,86.67
2023-02-24T13:36:16.365Z,86.07
2023-02-24T13:41:11.101Z,84.77
2023-02-24T13:46:08.417Z,80.63
2023-02-24T13:51:11.608Z,79.59
2023-02-24T13:56:21.922Z,78.90
2023-02-24T14:01:16.234Z,78.20
2023-02-24T14:06:08.481Z,77.73
2023-02-24T14:11:01.033Z,77.46
2023-02-24T14:15:56.170Z,75.87
2023-02-24T14:20:59.434Z,75.31
2023-02-24T14:26:02.483Z,75.49
2023-02-24T14:31:02.448Z,74.34
2023-02-24T14:35:52.543Z,72.45
2023-02-24T14:40:51.739Z,71.44
2023-02-24T14:45:51.372Z,70.94
2023-02-24T14:51:03.477Z,68.20
2023-02-24T14:55:56.423Z,68.63
2023-02-24T15:00:55.687Z,69.34
2023-02-24T15:05:54.400Z,68.33
2023-02-24T15:10:59.875Z,68.58
2023-02-24T15:15:50.713Z,67.46
2023-02-24T15:20:43.653Z,69.66
2023-02-24T15:25:48.780Z,68.71
2023-02-24T15:30:42.143Z,68.33
2023-02-24T15:35:38.071Z,68.42
2023-02-24T15:40:28.793Z,68.83
2023-02-24T15:45:33.040Z,69.25
2023-02-24T15:50:25.404Z,68.11
2023-02-24T15:55:18.910Z,68.95
2023-02-24T16:00:15.456Z,67.76
2023-02-24T16:05:12.310Z,68.07
2023-02-24T16:10:06.728Z,68.16
2023-02-24T16:15:00.371Z,68.84
2023-02-24T16:19:57.364Z,70.71
2023-02-24T16:24:51.826Z,72.14
2023-02-24T16:29:42.857Z,73.06
2023-02-24T16:34:34.368Z,73.83
2023-02-24T16:39:27.034Z,73.90
2023-02-24T16:44:26.503Z,74.65
2023-02-24T16:49:25.168Z,74.57
2023-02-24T16:54:23.400Z,73.28
2023-02-24T16:59:16.110Z,72.96
2023-02-24T17:04:11.273Z,72.68
2023-02-24T17:09:02.490Z,73.68
2023-02-24T17:13:54.577Z,75.48
2023-02-24T17:18:46.246Z,75.75
2023-02-24T17:23:46.154Z,75.66
2023-02-24T17:28:36.893Z,74.79
2023-02-24T17:33:34.216Z,73.82
2023-02-24T17:38:27.659Z,74.57
2023-02-24T17:43:32.617Z,76.05
2023-02-24T17:48:24.056Z,77.56
2023-02-24T17:53:16.300Z,76.84
2023-02-24T17:58:07.206Z,78.46
2023-02-24T18:03:10.169Z,78.02
2023-02-24T18:08:15.687Z,78.63
2023-02-24T18:13:08.458Z,79.23
2023-02-24T18:18:11.894Z,79.28
2023-02-24T18:23:13.259Z,79.49
2023-02-24T18:28:18.945Z,78.90
2023-02-24T18:33:12.105Z,77.64
2023-02-24T18:38:03.305Z,76.72
2023-02-24T18:42:56.459Z,76.23
2023-02-24T18:47:59.203Z,76.78
2023-02-24T18:52:54.803Z,76.41
2023-02-24T18:57:45.517Z,75.82
2023-02-24T19:02:40.449Z,76.32
2023-02-24T19:07:34.716Z,76.80
2023-02-24T19:12:31.438Z,77.41
2023-02-24T19:17:32.664Z,77.81
2023-02-24T19:22:22.908Z,78.61
2023-02-24T19:27:14.906Z,78.20
2023-02-24T19:32:11.199Z,78.21
2023-02-24T19:37:10.608Z,78.75
2023-02-24T19:42:02.094Z,78.08
2023-02-24T19:46:55.976Z,79.81
2023-02-24T19:51:55.362Z,79.95
2023-02-24T19:56:46.328Z,78.33
2023-02-24T20:01:40.083Z,74.59
2023-02-24T20:06:41.380Z,71.48
2023-02-24T20:11:50.822Z,72.11
2023-02-24T20:16:42.423Z,72.25
2023-02-24T20:21:34.518Z,72.22
2023-02-24T20:26:26.105Z,72.12
2023-02-24T20:31:20.473Z,71.25
2023-02-24T20:36:20.333Z,71.43
2023-02-24T20:41:11.556Z,71.82
2023-02-24T20:46:02.976Z,73.51
2023-02-24T20:50:56.668Z,75.94
2023-02-24T20:56:07.458Z,77.00
2023-02-24T21:00:57.246Z,77.55
2023-02-24T21:05:47.226Z,77.52
2023-02-24T21:10:40.766Z,77.20
2023-02-24T21:15:33.798Z,76.92
2023-02-24T21:20:31.565Z,76.80
2023-02-24T21:25:22.130Z,75.72
2023-02-24T21:30:19.866Z,75.70
2023-02-24T21:35:14.691Z,75.47
2023-02-24T21:40:15.444Z,75.10
2023-02-24T21:45:10.406Z,75.45
2023-02-24T21:50:07.926Z,73.74
2023-02-24T21:55:02.791Z,73.67
2023-02-24T22:00:01.677Z,73.62
2023-02-24T22:05:01.017Z,73.64
2023-02-24T22:09:59.652Z,73.29
2023-02-24T22:14:52.792Z,73.80
2023-02-24T22:19:46.524Z,74.54
2023-02-24T22:24:38.202Z,74.52
2023-02-24T22:29:30.997Z,74.25
2023-02-24T22:34:23.469Z,73.59
2023-02-24T22:39:20.548Z,73.76
2023-02-24T22:44:19.666Z,73.24
2023-02-24T22:49:18.786Z,73.07
2023-02-24T22:54:10.057Z,73.15
2023-02-24T22:59:04.450Z,73.50
2023-02-24T23:03:57.901Z,73.91
2023-02-24T23:08:55.825Z,74.35
2023-02-24T23:13:48.567Z,74.97
2023-02-24T23:18:44.296Z,75.90
2023-02-24T23:23:39.805Z,75.51
2023-02-24T23:28:39.147Z,75.55
2023-02-24T23:33:37.124Z,73.96
2023-02-24T23:38:30.463Z,72.34
2023-02-24T23:43:26.413Z,71.53
2023-02-24T23:48:21.151Z,70.86
2023-02-24T23:53:13.168Z,70.68
2023-02-24T23:58:04.412Z,70.82
